Catole do Rocha, Brazil
Current Conditions -  °F | °C
As of 8:00 AM on Monday 20 Oct 2014 (Local Time) from SBMS Reporting Station
Few Clouds Few Clouds  
Wind Chill: 86°   Ceiling: Unl
Heat Index: 88°   Visibility: 6mi
Dew Point: 66°   Wind: 9mph
Humidity: 51%   Direction: 100°E
Pressure: 29.91"   Gusts: NA
Location:  6.34°S, 37.75°W
Report Text: SBMS 201100Z 10008KT 9999 FEW030 30/19 Q1013
Loading
Personal Weather Stations






























Interactive Weather Map
Tropical Storm Tracking
New forecast layout! Learn more

10-Day Weather Forecast

Advertisements
Track Severe Weather on mobile